createdAt,value
2023-05-22T00:01:56.815Z,75.43
2023-05-22T00:04:30.096Z,75.05
2023-05-22T00:06:58.071Z,75.09
2023-05-22T00:09:26.340Z,75.58
2023-05-22T00:11:54.194Z,75.15
2023-05-22T00:14:21.944Z,74.99
2023-05-22T00:16:50.402Z,75.14
2023-05-22T00:19:19.012Z,75.27
2023-05-22T00:21:46.982Z,75.34
2023-05-22T00:24:14.908Z,75.85
2023-05-22T00:26:42.646Z,75.89
2023-05-22T00:29:11.012Z,75.45
2023-05-22T00:31:38.697Z,75.58
2023-05-22T00:34:06.490Z,75.91
2023-05-22T00:36:34.349Z,75.49
2023-05-22T00:39:02.132Z,75.89
2023-05-22T00:41:34.009Z,76.29
2023-05-22T00:44:02.783Z,76.62
2023-05-22T00:46:31.383Z,76.42
2023-05-22T00:48:59.191Z,76.58
2023-05-22T00:51:26.995Z,76.41
2023-05-22T00:53:54.814Z,76.36
2023-05-22T00:56:22.761Z,76.52
2023-05-22T00:58:50.883Z,76.61
2023-05-22T01:01:18.988Z,76.87
2023-05-22T01:03:47.161Z,76.83
2023-05-22T01:06:18.328Z,76.65
2023-05-22T01:08:46.172Z,76.43
2023-05-22T01:11:22.385Z,76.82
2023-05-22T01:14:10.842Z,76.80
2023-05-22T01:16:42.000Z,76.90
2023-05-22T01:19:47.688Z,76.89
2023-05-22T01:22:51.149Z,76.69
2023-05-22T01:25:36.072Z,76.72
2023-05-22T01:28:21.954Z,77.00
2023-05-22T01:30:58.618Z,77.15
2023-05-22T01:33:28.933Z,77.39
2023-05-22T01:36:00.274Z,77.28
2023-05-22T01:38:29.196Z,77.30
2023-05-22T01:40:58.350Z,77.36
2023-05-22T01:43:26.029Z,77.53
2023-05-22T01:45:53.986Z,77.66
2023-05-22T01:48:21.671Z,77.87
2023-05-22T01:50:52.267Z,77.84
2023-05-22T01:53:28.742Z,77.93
2023-05-22T01:56:21.108Z,78.27
2023-05-22T01:58:56.492Z,78.31
2023-05-22T02:01:28.999Z,78.45
2023-05-22T02:03:58.179Z,78.62
2023-05-22T02:06:28.873Z,78.48
2023-05-22T02:08:57.578Z,78.33
2023-05-22T02:11:28.551Z,78.44
2023-05-22T02:13:57.475Z,78.55
2023-05-22T02:16:25.484Z,78.80
2023-05-22T02:19:05.928Z,78.75
2023-05-22T02:21:34.922Z,78.82
2023-05-22T02:24:03.480Z,79.30
2023-05-22T02:26:31.299Z,79.39
2023-05-22T02:28:59.121Z,79.03
2023-05-22T02:31:27.064Z,79.54
2023-05-22T02:33:54.951Z,79.55
2023-05-22T02:36:23.066Z,79.51
2023-05-22T02:38:50.902Z,79.47
2023-05-22T02:41:18.766Z,79.50
2023-05-22T02:43:46.458Z,79.88
2023-05-22T02:46:14.375Z,79.71
2023-05-22T02:48:42.122Z,79.55
2023-05-22T02:51:09.909Z,79.82
2023-05-22T02:53:40.232Z,80.09
2023-05-22T02:56:10.710Z,79.92
2023-05-22T02:58:39.145Z,80.22
2023-05-22T03:01:06.845Z,80.25
2023-05-22T03:03:34.964Z,80.38
2023-05-22T03:06:04.265Z,80.59
2023-05-22T03:08:32.328Z,80.73
2023-05-22T03:11:00.643Z,80.88
2023-05-22T03:13:28.402Z,80.77
2023-05-22T03:15:56.144Z,81.04
2023-05-22T03:18:25.961Z,81.09
2023-05-22T03:20:55.062Z,81.25
2023-05-22T03:23:22.788Z,81.25
2023-05-22T03:25:51.332Z,81.13
2023-05-22T03:28:19.053Z,81.15
2023-05-22T03:30:47.579Z,81.12
2023-05-22T03:33:15.457Z,81.33
2023-05-22T03:35:44.691Z,81.60
2023-05-22T03:38:12.414Z,81.53
2023-05-22T03:40:40.276Z,81.72
2023-05-22T03:43:08.196Z,81.58
2023-05-22T03:45:35.934Z,81.52
2023-05-22T03:48:03.967Z,81.69
2023-05-22T03:50:31.778Z,81.91
2023-05-22T03:52:59.482Z,82.04
2023-05-22T03:55:27.225Z,81.90
2023-05-22T03:57:55.005Z,81.94
2023-05-22T04:00:22.872Z,81.99
2023-05-22T04:02:51.389Z,81.82
2023-05-22T04:05:19.286Z,81.60
2023-05-22T04:07:47.045Z,81.44
2023-05-22T04:10:14.726Z,81.36
2023-05-22T04:12:42.480Z,81.41
2023-05-22T04:15:10.255Z,81.52
2023-05-22T04:17:40.950Z,81.53
2023-05-22T04:20:09.734Z,81.60
2023-05-22T04:22:38.635Z,81.62
2023-05-22T04:25:06.784Z,81.49
2023-05-22T04:27:35.721Z,81.13
2023-05-22T04:30:04.067Z,80.89
2023-05-22T04:32:31.815Z,80.85
2023-05-22T04:35:00.837Z,80.53
2023-05-22T04:37:32.009Z,80.58
2023-05-22T04:40:06.081Z,80.42
2023-05-22T04:42:37.458Z,80.23
2023-05-22T04:45:05.861Z,79.84
2023-05-22T04:47:33.598Z,79.10
2023-05-22T04:50:02.565Z,78.34
2023-05-22T04:52:30.407Z,77.47
2023-05-22T04:55:00.687Z,77.18
2023-05-22T04:57:29.840Z,76.87
2023-05-22T04:59:58.243Z,76.92
2023-05-22T05:02:26.065Z,76.56
2023-05-22T05:04:54.077Z,76.30
2023-05-22T05:07:21.795Z,75.97
2023-05-22T05:09:49.711Z,75.26
2023-05-22T05:12:17.635Z,74.96
2023-05-22T05:14:45.634Z,74.54
2023-05-22T05:17:13.915Z,74.11
2023-05-22T05:19:41.726Z,73.69
2023-05-22T05:22:09.523Z,73.59
2023-05-22T05:24:37.324Z,73.29
2023-05-22T05:27:05.298Z,73.15
2023-05-22T05:29:33.100Z,72.75
2023-05-22T05:32:00.912Z,72.53
2023-05-22T05:34:28.664Z,72.55
2023-05-22T05:36:58.052Z,72.17
2023-05-22T05:39:25.867Z,72.12
2023-05-22T05:41:53.587Z,72.00
2023-05-22T05:44:21.669Z,71.89
2023-05-22T05:46:49.485Z,72.02
2023-05-22T05:49:17.209Z,72.01
2023-05-22T05:51:44.940Z,72.48
2023-05-22T05:54:12.789Z,72.27
2023-05-22T05:56:40.784Z,71.42
2023-05-22T05:59:09.860Z,70.95
2023-05-22T06:01:39.470Z,70.74
2023-05-22T06:04:09.099Z,70.32
2023-05-22T06:06:36.860Z,69.62
2023-05-22T06:09:07.993Z,69.41
2023-05-22T06:11:36.666Z,69.41
2023-05-22T06:14:07.425Z,68.50
2023-05-22T06:16:35.244Z,67.11
2023-05-22T06:19:04.642Z,65.27
2023-05-22T06:21:32.471Z,65.96
2023-05-22T06:24:00.296Z,65.52
2023-05-22T06:26:28.191Z,65.05
2023-05-22T06:28:55.991Z,65.11
2023-05-22T06:31:24.634Z,61.38
2023-05-22T06:33:52.596Z,61.14
2023-05-22T06:36:20.518Z,59.94
2023-05-22T06:38:49.751Z,61.86
2023-05-22T06:41:17.637Z,59.73
2023-05-22T06:43:45.426Z,58.17
2023-05-22T06:46:13.508Z,59.68
2023-05-22T06:48:42.007Z,59.17
2023-05-22T06:51:11.669Z,58.04
2023-05-22T06:53:39.677Z,57.02
2023-05-22T06:56:07.540Z,57.47
2023-05-22T06:58:35.295Z,58.66
2023-05-22T07:01:03.246Z,57.94
2023-05-22T07:03:31.069Z,57.17
2023-05-22T07:05:59.762Z,57.53
2023-05-22T07:08:30.337Z,56.76
2023-05-22T07:10:58.434Z,57.31
2023-05-22T07:13:26.141Z,56.57
2023-05-22T07:15:54.409Z,56.54
2023-05-22T07:18:22.233Z,56.64
2023-05-22T07:20:50.037Z,56.22
2023-05-22T07:23:17.769Z,54.24
2023-05-22T07:25:45.519Z,54.17
2023-05-22T07:28:13.242Z,54.16
2023-05-22T07:30:41.607Z,51.26
2023-05-22T07:33:09.526Z,53.63
2023-05-22T07:35:37.767Z,52.31
2023-05-22T07:38:05.555Z,52.77
2023-05-22T07:40:33.246Z,50.50
2023-05-22T07:43:01.006Z,50.93
2023-05-22T07:45:28.739Z,48.27
2023-05-22T07:47:59.106Z,47.17
2023-05-22T07:50:27.092Z,47.77
2023-05-22T07:52:54.813Z,47.33
2023-05-22T07:55:22.774Z,47.35
2023-05-22T07:57:51.476Z,46.74
2023-05-22T08:00:19.949Z,46.32
2023-05-22T08:02:47.980Z,46.35
2023-05-22T08:05:16.032Z,47.42
2023-05-22T08:07:43.891Z,46.17
2023-05-22T08:10:15.999Z,45.81
2023-05-22T08:12:43.762Z,45.51
2023-05-22T08:15:12.068Z,44.00
2023-05-22T08:17:40.143Z,43.67
2023-05-22T08:20:09.534Z,42.18
2023-05-22T08:22:39.245Z,42.88
2023-05-22T08:25:07.211Z,41.01
2023-05-22T08:27:35.144Z,42.10
2023-05-22T08:30:04.763Z,42.68
2023-05-22T08:32:32.674Z,43.64
2023-05-22T08:35:01.661Z,42.34
2023-05-22T08:37:29.467Z,40.58
2023-05-22T08:39:57.142Z,42.25
2023-05-22T08:42:25.273Z,42.48
2023-05-22T08:44:55.468Z,42.02
2023-05-22T08:47:26.090Z,41.07
2023-05-22T08:49:54.987Z,41.90
2023-05-22T08:52:26.403Z,44.56
2023-05-22T08:54:56.093Z,44.81
2023-05-22T08:57:25.000Z,42.50
2023-05-22T08:59:53.156Z,40.40
2023-05-22T09:02:21.904Z,40.94
2023-05-22T09:04:49.802Z,43.34
2023-05-22T09:07:17.514Z,42.07
2023-05-22T09:09:45.202Z,39.68
2023-05-22T09:12:13.874Z,40.49
2023-05-22T09:14:43.068Z,39.07
2023-05-22T09:17:15.700Z,38.39
2023-05-22T09:19:47.317Z,38.80
2023-05-22T09:22:15.148Z,38.62
2023-05-22T09:24:47.194Z,38.71
2023-05-22T09:27:14.920Z,37.24
2023-05-22T09:29:51.049Z,37.85
2023-05-22T09:32:20.113Z,37.80
2023-05-22T09:34:47.969Z,37.76
2023-05-22T09:37:16.763Z,39.90
2023-05-22T09:39:46.556Z,39.78
2023-05-22T09:42:18.110Z,39.34
2023-05-22T09:44:49.859Z,38.79
2023-05-22T09:47:17.898Z,38.80
2023-05-22T09:49:46.383Z,39.42
2023-05-22T09:52:15.759Z,38.51
2023-05-22T09:54:54.003Z,38.81
2023-05-22T09:57:24.104Z,40.33
2023-05-22T09:59:54.998Z,40.74
2023-05-22T10:02:24.321Z,39.28
2023-05-22T10:04:53.522Z,39.20
2023-05-22T10:07:37.582Z,38.09
2023-05-22T10:10:11.453Z,37.45
2023-05-22T10:12:44.614Z,37.40
2023-05-22T10:15:13.019Z,36.66
2023-05-22T10:17:42.142Z,37.40
2023-05-22T10:20:11.740Z,38.01
2023-05-22T10:22:39.510Z,36.91
2023-05-22T10:25:10.443Z,37.92
2023-05-22T10:27:40.535Z,39.62
2023-05-22T10:30:20.347Z,37.60
2023-05-22T10:32:55.167Z,37.32
2023-05-22T10:35:52.916Z,37.94
2023-05-22T10:38:44.198Z,38.18
2023-05-22T10:41:12.668Z,37.56
2023-05-22T10:43:48.343Z,37.10
2023-05-22T10:46:16.643Z,38.30
2023-05-22T10:48:46.802Z,37.53
2023-05-22T10:51:18.189Z,37.54
2023-05-22T10:53:53.234Z,38.56
2023-05-22T10:56:24.434Z,37.71
2023-05-22T10:58:58.062Z,37.91
2023-05-22T11:01:26.736Z,38.11
2023-05-22T11:03:55.983Z,39.88
2023-05-22T11:06:31.798Z,38.86
2023-05-22T11:09:00.010Z,39.43
2023-05-22T11:11:28.183Z,39.17
2023-05-22T11:14:03.506Z,39.43
2023-05-22T11:16:38.076Z,39.46
2023-05-22T11:19:22.658Z,39.44
2023-05-22T11:21:51.529Z,39.28
2023-05-22T11:24:19.550Z,39.01
2023-05-22T11:27:02.769Z,39.81
2023-05-22T11:29:31.146Z,39.04
2023-05-22T11:31:59.927Z,39.38
2023-05-22T11:34:28.083Z,39.50
2023-05-22T11:37:00.011Z,39.48
2023-05-22T11:39:28.198Z,39.23
2023-05-22T11:41:56.190Z,39.31
2023-05-22T11:44:24.053Z,39.70
2023-05-22T11:46:52.640Z,39.31
2023-05-22T11:49:24.100Z,40.27
2023-05-22T11:51:51.963Z,40.68
2023-05-22T11:54:19.899Z,38.80
2023-05-22T11:56:48.376Z,36.59
2023-05-22T11:59:16.598Z,36.36
2023-05-22T12:01:44.436Z,38.36
2023-05-22T12:04:12.397Z,36.74
2023-05-22T12:06:40.313Z,37.11
2023-05-22T12:09:09.123Z,36.44
2023-05-22T12:11:37.529Z,35.79
2023-05-22T12:14:05.779Z,35.36
2023-05-22T12:16:36.868Z,35.05
2023-05-22T12:19:09.560Z,36.66
2023-05-22T12:21:42.277Z,36.01
2023-05-22T12:24:10.729Z,35.35
2023-05-22T12:26:38.423Z,35.74
2023-05-22T12:29:06.397Z,36.11
2023-05-22T12:31:39.003Z,35.93
2023-05-22T12:34:08.597Z,36.30
2023-05-22T12:36:42.246Z,36.09
2023-05-22T12:39:11.996Z,35.46
2023-05-22T12:41:40.163Z,36.68
2023-05-22T12:44:08.284Z,35.38
2023-05-22T12:46:36.427Z,35.39
2023-05-22T12:49:04.296Z,36.26
2023-05-22T12:51:32.934Z,38.51
2023-05-22T12:54:02.101Z,38.96
2023-05-22T12:56:30.825Z,36.92
2023-05-22T12:58:58.955Z,36.11
2023-05-22T13:01:27.176Z,34.83
2023-05-22T13:03:54.975Z,35.43
2023-05-22T13:06:22.729Z,35.82
2023-05-22T13:08:51.147Z,34.90
2023-05-22T13:11:20.157Z,34.91
2023-05-22T13:13:47.888Z,36.45
2023-05-22T13:16:15.620Z,34.99
2023-05-22T13:18:44.186Z,34.03
2023-05-22T13:21:13.603Z,34.34
2023-05-22T13:23:42.296Z,34.54
2023-05-22T13:26:10.060Z,34.85
2023-05-22T13:28:37.806Z,35.31
2023-05-22T13:31:05.637Z,35.67
2023-05-22T13:33:33.384Z,35.00
2023-05-22T13:36:01.190Z,35.77
2023-05-22T13:38:28.946Z,37.50
2023-05-22T13:40:56.671Z,36.12
2023-05-22T13:43:24.374Z,39.05
2023-05-22T13:45:52.151Z,36.81
2023-05-22T13:48:20.185Z,37.25
2023-05-22T13:50:47.924Z,36.22
2023-05-22T13:53:20.982Z,36.48
2023-05-22T13:55:48.894Z,36.28
2023-05-22T13:58:16.740Z,35.06
2023-05-22T14:00:44.678Z,35.88
2023-05-22T14:03:17.501Z,35.34
2023-05-22T14:05:45.785Z,35.46
2023-05-22T14:08:13.616Z,34.88
2023-05-22T14:10:42.271Z,34.85
2023-05-22T14:13:10.050Z,35.15
2023-05-22T14:15:38.067Z,35.19
2023-05-22T14:18:06.039Z,34.29
2023-05-22T14:20:34.238Z,35.53
2023-05-22T14:23:02.019Z,35.04
2023-05-22T14:25:29.857Z,35.56
2023-05-22T14:27:57.886Z,34.53
2023-05-22T14:30:25.855Z,33.98
2023-05-22T14:32:53.649Z,34.64
2023-05-22T14:35:21.570Z,34.76
2023-05-22T14:37:49.539Z,34.90
2023-05-22T14:40:17.390Z,34.16
2023-05-22T14:42:45.801Z,34.99
2023-05-22T14:45:13.632Z,36.86
2023-05-22T14:47:43.104Z,35.74
2023-05-22T14:50:19.008Z,34.85
2023-05-22T14:52:49.426Z,35.59
2023-05-22T14:55:17.762Z,34.45
2023-05-22T14:57:45.982Z,33.82
2023-05-22T15:00:15.279Z,34.25
2023-05-22T15:02:43.220Z,34.65
2023-05-22T15:05:11.736Z,34.81
2023-05-22T15:07:44.459Z,34.88
2023-05-22T15:10:13.234Z,35.04
2023-05-22T15:12:41.223Z,35.84
2023-05-22T15:15:09.178Z,36.54
2023-05-22T15:17:36.889Z,35.93
2023-05-22T15:20:05.675Z,35.08
2023-05-22T15:22:33.401Z,35.15
2023-05-22T15:25:09.694Z,34.94
2023-05-22T15:27:39.057Z,36.64
2023-05-22T15:30:09.809Z,37.01
2023-05-22T15:32:38.066Z,36.74
2023-05-22T15:35:07.148Z,36.24
2023-05-22T15:37:36.540Z,36.34
2023-05-22T15:40:06.065Z,36.89
2023-05-22T15:42:33.775Z,36.22
2023-05-22T15:45:01.940Z,36.37
2023-05-22T15:47:29.974Z,35.68
2023-05-22T15:49:57.819Z,35.41
2023-05-22T15:52:25.718Z,34.46
2023-05-22T15:54:54.969Z,34.95
2023-05-22T15:57:23.984Z,33.65
2023-05-22T15:59:51.951Z,33.52
2023-05-22T16:02:19.739Z,34.21
2023-05-22T16:04:49.238Z,34.33
2023-05-22T16:07:18.995Z,33.80
2023-05-22T16:09:47.507Z,33.50
2023-05-22T16:12:15.494Z,35.00
2023-05-22T16:14:43.336Z,35.01
2023-05-22T16:17:11.255Z,34.18
2023-05-22T16:19:39.006Z,34.86
2023-05-22T16:22:06.826Z,34.47
2023-05-22T16:24:34.555Z,34.78
2023-05-22T16:27:02.492Z,35.61
2023-05-22T16:29:32.312Z,35.76
2023-05-22T16:32:00.197Z,35.83
2023-05-22T16:34:29.719Z,35.68
2023-05-22T16:36:57.477Z,35.75
2023-05-22T16:39:27.071Z,36.24
2023-05-22T16:41:54.901Z,35.91
2023-05-22T16:44:22.644Z,36.08
2023-05-22T16:46:50.633Z,35.99
2023-05-22T16:49:18.394Z,36.28
2023-05-22T16:51:46.159Z,36.85
2023-05-22T16:54:13.912Z,36.64
2023-05-22T16:56:42.694Z,36.73
2023-05-22T16:59:10.567Z,36.81
2023-05-22T17:01:38.420Z,37.25
2023-05-22T17:04:06.264Z,36.89
2023-05-22T17:06:35.552Z,36.92
2023-05-22T17:09:03.575Z,37.21
2023-05-22T17:11:31.317Z,37.90
2023-05-22T17:13:59.184Z,37.66
2023-05-22T17:16:26.949Z,38.14
2023-05-22T17:18:55.182Z,38.21
2023-05-22T17:21:24.350Z,38.96
2023-05-22T17:23:52.289Z,38.61
2023-05-22T17:26:20.198Z,38.50
2023-05-22T17:28:47.879Z,38.46
2023-05-22T17:31:16.493Z,38.79
2023-05-22T17:33:44.352Z,39.26
2023-05-22T17:36:12.347Z,40.15
2023-05-22T17:38:40.213Z,39.92
2023-05-22T17:41:08.499Z,40.62
2023-05-22T17:43:38.298Z,41.05
2023-05-22T17:46:06.574Z,41.69
2023-05-22T17:48:34.720Z,42.19
2023-05-22T17:51:03.629Z,43.07
2023-05-22T17:53:34.905Z,43.65
2023-05-22T17:56:04.695Z,44.17
2023-05-22T17:58:32.875Z,44.38
2023-05-22T18:01:00.668Z,45.09
2023-05-22T18:03:28.818Z,46.31
2023-05-22T18:05:56.986Z,46.24
2023-05-22T18:08:25.025Z,46.14
2023-05-22T18:10:52.739Z,46.73
2023-05-22T18:13:20.502Z,47.46
2023-05-22T18:15:50.136Z,48.32
2023-05-22T18:18:18.164Z,48.20
2023-05-22T18:20:46.404Z,48.51
2023-05-22T18:23:14.314Z,49.42
2023-05-22T18:25:42.175Z,49.57
2023-05-22T18:28:10.165Z,49.88
2023-05-22T18:30:38.112Z,50.55
2023-05-22T18:33:06.184Z,50.82
2023-05-22T18:35:34.008Z,51.66
2023-05-22T18:38:01.996Z,51.66
2023-05-22T18:40:29.709Z,52.56
2023-05-22T18:42:57.422Z,52.27
2023-05-22T18:45:25.118Z,52.61
2023-05-22T18:47:53.587Z,52.88
2023-05-22T18:50:23.409Z,53.02
2023-05-22T18:52:51.575Z,53.16
2023-05-22T18:55:19.415Z,53.67
2023-05-22T18:57:47.156Z,53.97
2023-05-22T19:00:14.967Z,54.44
2023-05-22T19:02:42.759Z,54.76
2023-05-22T19:05:10.852Z,55.56
2023-05-22T19:07:38.842Z,55.53
2023-05-22T19:10:08.303Z,55.57
2023-05-22T19:12:36.170Z,55.79
2023-05-22T19:15:05.477Z,56.83
2023-05-22T19:17:33.380Z,57.05
2023-05-22T19:20:03.476Z,57.28
2023-05-22T19:22:32.009Z,57.61
2023-05-22T19:24:59.851Z,57.97
2023-05-22T19:27:27.678Z,58.07
2023-05-22T19:29:56.723Z,57.77
2023-05-22T19:32:24.421Z,58.99
2023-05-22T19:34:52.137Z,59.01
2023-05-22T19:37:19.849Z,59.05
2023-05-22T19:39:47.648Z,59.50
2023-05-22T19:42:15.395Z,60.06
2023-05-22T19:44:43.156Z,59.83
2023-05-22T19:47:11.067Z,60.47
2023-05-22T19:49:38.765Z,60.64
2023-05-22T19:52:06.816Z,61.14
2023-05-22T19:54:35.804Z,61.54
2023-05-22T19:57:03.639Z,61.72
2023-05-22T19:59:31.384Z,62.18
2023-05-22T20:01:59.478Z,62.51
2023-05-22T20:04:27.428Z,62.73
2023-05-22T20:06:55.380Z,62.71
2023-05-22T20:09:23.105Z,62.73
2023-05-22T20:11:50.907Z,63.48
2023-05-22T20:14:20.943Z,63.22
2023-05-22T20:16:49.005Z,63.80
2023-05-22T20:19:17.672Z,64.13
2023-05-22T20:21:49.017Z,64.00
2023-05-22T20:24:21.127Z,64.38
2023-05-22T20:26:49.085Z,64.54
2023-05-22T20:29:17.687Z,64.73
2023-05-22T20:31:46.095Z,65.16
2023-05-22T20:34:14.074Z,65.55
2023-05-22T20:36:42.743Z,65.76
2023-05-22T20:39:12.318Z,65.59
2023-05-22T20:41:40.057Z,65.97
2023-05-22T20:44:08.178Z,66.35
2023-05-22T20:46:35.941Z,66.43
2023-05-22T20:49:05.108Z,66.41
2023-05-22T20:51:33.637Z,66.44
2023-05-22T20:54:01.532Z,66.51
2023-05-22T20:56:30.187Z,66.69
2023-05-22T20:58:58.012Z,67.05
2023-05-22T21:01:25.820Z,67.47
2023-05-22T21:03:56.564Z,67.55
2023-05-22T21:06:24.534Z,67.14
2023-05-22T21:08:54.291Z,67.40
2023-05-22T21:11:22.221Z,67.61
2023-05-22T21:13:49.966Z,67.76
2023-05-22T21:16:17.671Z,68.02
2023-05-22T21:18:45.852Z,68.20
2023-05-22T21:21:20.428Z,68.58
2023-05-22T21:23:49.285Z,68.72
2023-05-22T21:26:17.117Z,69.10
2023-05-22T21:28:45.053Z,69.38
2023-05-22T21:31:12.848Z,69.31
2023-05-22T21:33:42.728Z,69.02
2023-05-22T21:36:10.477Z,69.05
2023-05-22T21:38:38.357Z,69.22
2023-05-22T21:41:06.227Z,69.79
2023-05-22T21:43:34.037Z,70.16
2023-05-22T21:46:01.817Z,70.04
2023-05-22T21:48:29.626Z,70.16
2023-05-22T21:50:58.144Z,70.09
2023-05-22T21:53:26.133Z,69.96
2023-05-22T21:55:53.924Z,69.79
2023-05-22T21:58:21.889Z,69.88
2023-05-22T22:00:49.615Z,70.25
2023-05-22T22:03:18.292Z,70.28
2023-05-22T22:05:46.360Z,70.86
2023-05-22T22:08:14.099Z,71.31
2023-05-22T22:10:42.237Z,71.60
2023-05-22T22:13:10.273Z,72.23
2023-05-22T22:15:37.999Z,72.32
2023-05-22T22:18:05.886Z,72.64
2023-05-22T22:20:44.454Z,72.61
2023-05-22T22:23:13.218Z,72.77
2023-05-22T22:25:40.969Z,73.07
2023-05-22T22:28:08.705Z,73.21
2023-05-22T22:30:36.445Z,73.82
2023-05-22T22:33:04.301Z,73.84
2023-05-22T22:35:32.133Z,73.56
2023-05-22T22:37:59.861Z,73.37
2023-05-22T22:40:27.948Z,73.31
2023-05-22T22:42:55.665Z,72.95
2023-05-22T22:45:23.467Z,73.40
2023-05-22T22:47:53.203Z,73.93
2023-05-22T22:50:21.447Z,74.28
2023-05-22T22:52:49.447Z,73.95
2023-05-22T22:55:17.490Z,74.12
2023-05-22T22:57:50.022Z,74.56
2023-05-22T23:00:19.276Z,74.85
2023-05-22T23:02:47.361Z,75.30
2023-05-22T23:05:20.034Z,75.25
2023-05-22T23:07:48.807Z,75.20
2023-05-22T23:10:16.617Z,75.06
2023-05-22T23:12:44.367Z,75.41
2023-05-22T23:15:13.759Z,75.50
2023-05-22T23:17:42.180Z,75.70
2023-05-22T23:20:11.270Z,75.73
2023-05-22T23:22:39.122Z,75.25
2023-05-22T23:25:07.411Z,75.62
2023-05-22T23:27:36.545Z,75.89
2023-05-22T23:30:05.467Z,76.27
2023-05-22T23:32:33.239Z,76.12
2023-05-22T23:35:01.009Z,76.39
2023-05-22T23:37:28.886Z,76.13
2023-05-22T23:39:56.564Z,76.36
2023-05-22T23:42:24.283Z,76.64
2023-05-22T23:44:51.981Z,76.50
2023-05-22T23:47:20.044Z,76.39
2023-05-22T23:49:47.727Z,76.80
2023-05-22T23:52:15.482Z,76.89
2023-05-22T23:54:43.206Z,76.82
2023-05-22T23:57:11.063Z,77.17
2023-05-22T23:59:39.231Z,77.35
